KMOB/MOB METAR and TAF weather

Enter ICAO airport designator
Station Type Date Time Source
KMOB METAR 2019/08/17 10:56 UTC NOAA

KMOB 171056Z 32003KT 7SM SCT050 BKN250 24/24 A2993 RMK AO2 SLP130 T02440239


Station Type Date Time Source
KMOB Decoded METAR 2019/08/17 10:56 UTC NOAA

Station name not available
Aug 17, 2019 - 06:56 AM EDT / 2019.08.17 1056 UTC
Wind: from the NW (320 degrees) at 3 MPH (3 KT):0
Visibility: 7 mile(s):0
Sky conditions: mostly cloudy
Temperature: 75.9 F (24.4 C)
Dew Point: 75.0 F (23.9 C)
Relative Humidity: 97%
Pressure (altimeter): 29.93 in. Hg (1013 hPa)
ob: KMOB 171056Z 32003KT 7SM SCT050 BKN250 24/24 A2993 RMK AO2 SLP130 T02440239
cycle: 11

Station Type Date Time Source
KMOB TAF 2019/08/17 06:22 UTC NOAA

TAF KMOB 170520Z 1706/1806 VRB05KT P6SM FEW070
FM171700 20008KT P6SM SCT050 SCT250

Example: see airport list